< < Back
Terminal Aerodrome Forecast


Current Version              Previous Versions:   1  2  3  4  5  6  7  8  9  

Terminal Aerodrome Forecast

998
FTUS44 KOHX 041720
TAFBNA
TAF
KBNA 041720Z 0418/0518 VRB05KT P6SM FEW060 SCT070=

Latest METAR

374
SAUS70 KWBC 041900 RRD
MTRBNA
METAR KBNA 041853Z VRB05KT 10SM SCT065 BKN075 35/17 A3003 RMK AO2 SLP160
T03500167


USA.gov is the U.S. government's official web portal to all federal, state and local government web resources and services.